Terminal Aerodrome Forecast
Issued by NWS

Home | Current Version | Previous Version | Text Only | Print | Product List | Glossary On
Versions: 1 2 3 4 5 6 7 8 9 10 11 12
000
FTUS42 TJSJ 311142
TAFJPS
TAF
TJPS 311142Z 3112/0112 06004KT P6SM FEW030
     FM311400 14012G18KT P6SM SCT030
     FM312200 09007KT P6SM FEW025
      AMD NOT SKED TIL 010300=

USA.gov is the U.S. government's official web portal to all federal, state and local government web resources and services.